createdAt,value
2018-08-12T00:01:22.307Z,64.54
2018-08-12T00:03:52.407Z,65.09
2018-08-12T00:06:22.523Z,65.73
2018-08-12T00:08:52.610Z,65.63
2018-08-12T00:11:22.685Z,65.40
2018-08-12T00:13:52.778Z,66.02
2018-08-12T00:16:22.813Z,65.42
2018-08-12T00:18:52.929Z,64.58
2018-08-12T00:21:22.988Z,64.40
2018-08-12T00:23:53.084Z,65.41
2018-08-12T00:26:23.158Z,66.21
2018-08-12T00:28:53.217Z,65.33
2018-08-12T00:31:23.206Z,65.61
2018-08-12T00:33:53.284Z,66.03
2018-08-12T00:36:23.364Z,65.56
2018-08-12T00:38:53.484Z,65.74
2018-08-12T00:41:23.514Z,65.54
2018-08-12T00:43:53.598Z,65.47
2018-08-12T00:46:23.647Z,65.25
2018-08-12T00:48:53.721Z,65.42
2018-08-12T00:51:23.783Z,65.48
2018-08-12T00:53:53.842Z,65.62
2018-08-12T00:56:23.982Z,65.66
2018-08-12T00:58:54.031Z,66.23
2018-08-12T01:01:24.133Z,66.22
2018-08-12T01:03:55.139Z,65.87
2018-08-12T01:06:25.287Z,65.83
2018-08-12T01:08:55.314Z,66.29
2018-08-12T01:11:25.445Z,65.88
2018-08-12T01:13:55.516Z,66.04
2018-08-12T01:16:25.546Z,66.03
2018-08-12T01:18:55.710Z,65.68
2018-08-12T01:21:25.742Z,65.27
2018-08-12T01:23:55.766Z,64.97
2018-08-12T01:26:25.903Z,65.77
2018-08-12T01:28:55.932Z,65.42
2018-08-12T01:31:25.979Z,65.22
2018-08-12T01:33:56.060Z,65.30
2018-08-12T01:36:26.128Z,65.35
2018-08-12T01:38:56.346Z,65.12
2018-08-12T01:41:26.437Z,64.89
2018-08-12T01:43:56.484Z,64.76
2018-08-12T01:46:26.546Z,65.13
2018-08-12T01:48:56.647Z,65.15
2018-08-12T01:51:26.921Z,65.31
2018-08-12T01:53:57.018Z,65.09
2018-08-12T01:56:27.112Z,64.91
2018-08-12T01:58:57.162Z,65.16
2018-08-12T02:01:27.223Z,65.51
2018-08-12T02:03:57.348Z,65.80
2018-08-12T02:06:27.466Z,65.85
2018-08-12T02:08:57.527Z,65.89
2018-08-12T02:11:27.588Z,66.20
2018-08-12T02:13:57.610Z,65.61
2018-08-12T02:16:27.697Z,65.64
2018-08-12T02:18:57.767Z,65.35
2018-08-12T02:21:27.860Z,65.41
2018-08-12T02:23:57.895Z,65.91
2018-08-12T02:26:28.015Z,65.52
2018-08-12T02:28:58.138Z,65.55
2018-08-12T02:31:28.222Z,65.26
2018-08-12T02:33:58.315Z,64.72
2018-08-12T02:36:29.207Z,64.74
2018-08-12T02:38:59.227Z,64.94
2018-08-12T02:41:29.258Z,64.96
2018-08-12T02:43:59.295Z,65.02
2018-08-12T02:46:29.349Z,64.85
2018-08-12T02:48:59.437Z,64.82
2018-08-12T02:51:29.515Z,64.90
2018-08-12T02:53:59.576Z,64.92
2018-08-12T02:56:29.743Z,64.97
2018-08-12T02:59:00.358Z,64.55
2018-08-12T03:01:30.453Z,64.85
2018-08-12T03:04:00.515Z,65.32
2018-08-12T03:06:30.724Z,65.59
2018-08-12T03:09:00.825Z,65.50
2018-08-12T03:11:30.964Z,65.30
2018-08-12T03:14:01.017Z,65.41
2018-08-12T03:16:31.144Z,65.35
2018-08-12T03:19:01.222Z,64.96
2018-08-12T03:21:31.418Z,65.08
2018-08-12T03:24:01.464Z,65.25
2018-08-12T03:26:31.572Z,64.87
2018-08-12T03:29:01.638Z,65.26
2018-08-12T03:31:31.683Z,65.42
2018-08-12T03:34:01.740Z,65.91
2018-08-12T03:36:31.860Z,65.27
2018-08-12T03:39:01.966Z,65.68
2018-08-12T03:41:32.056Z,65.36
2018-08-12T03:44:02.123Z,65.04
2018-08-12T03:46:32.231Z,65.28
2018-08-12T03:49:02.368Z,65.15
2018-08-12T03:51:32.413Z,65.04
2018-08-12T03:54:02.723Z,65.02
2018-08-12T03:56:32.808Z,65.46
2018-08-12T03:59:02.936Z,66.14
2018-08-12T04:01:33.582Z,65.92
2018-08-12T04:04:03.748Z,65.91
2018-08-12T04:06:33.806Z,66.24
2018-08-12T04:09:03.981Z,65.23
2018-08-12T04:11:34.045Z,65.04
2018-08-12T04:14:04.618Z,65.18
2018-08-12T04:16:35.039Z,65.42
2018-08-12T04:19:05.167Z,65.67
2018-08-12T04:21:35.146Z,65.54
2018-08-12T04:24:05.295Z,66.06
2018-08-12T04:26:35.275Z,65.88
2018-08-12T04:29:05.385Z,65.33
2018-08-12T04:31:35.414Z,65.28
2018-08-12T04:34:05.483Z,65.52
2018-08-12T04:36:35.580Z,65.68
2018-08-12T04:39:08.323Z,66.54
2018-08-12T04:41:38.350Z,65.82
2018-08-12T04:44:08.462Z,65.44
2018-08-12T04:46:39.283Z,65.93
2018-08-12T04:49:10.555Z,65.43
2018-08-12T04:51:40.647Z,65.31
2018-08-12T04:54:10.818Z,65.72
2018-08-12T04:56:40.846Z,65.51
2018-08-12T04:59:10.913Z,65.49
2018-08-12T05:01:40.954Z,64.74
2018-08-12T05:04:11.084Z,65.13
2018-08-12T05:06:41.074Z,64.37
2018-08-12T05:09:12.455Z,64.51
2018-08-12T05:11:42.463Z,63.79
2018-08-12T05:14:12.618Z,63.56
2018-08-12T05:16:42.698Z,63.17
2018-08-12T05:19:12.771Z,62.59
2018-08-12T05:21:42.769Z,61.92
2018-08-12T05:24:12.820Z,61.72
2018-08-12T05:26:42.919Z,60.52
2018-08-12T05:29:12.980Z,58.67
2018-08-12T05:31:43.039Z,57.18
2018-08-12T05:34:13.055Z,55.69
2018-08-12T05:36:43.140Z,55.63
2018-08-12T05:39:14.623Z,54.07
2018-08-12T05:41:44.906Z,51.39
2018-08-12T05:44:15.011Z,51.17
2018-08-12T05:46:45.044Z,50.25
2018-08-12T05:49:15.248Z,49.64
2018-08-12T05:51:45.304Z,49.26
2018-08-12T05:54:15.405Z,48.17
2018-08-12T05:56:45.435Z,47.42
2018-08-12T05:59:15.593Z,47.86
2018-08-12T06:01:45.634Z,45.54
2018-08-12T06:04:15.739Z,45.57
2018-08-12T06:06:45.796Z,46.41
2018-08-12T06:09:15.887Z,45.05
2018-08-12T06:11:45.969Z,44.79
2018-08-12T06:14:16.144Z,44.54
2018-08-12T06:16:46.272Z,42.66
2018-08-12T06:19:16.405Z,43.23
2018-08-12T06:21:46.449Z,43.82
2018-08-12T06:24:16.571Z,42.06
2018-08-12T06:26:46.581Z,42.77
2018-08-12T06:29:16.684Z,42.55
2018-08-12T06:31:46.733Z,42.48
2018-08-12T06:34:16.869Z,42.42
2018-08-12T06:36:46.996Z,41.49
2018-08-12T06:39:17.025Z,41.13
2018-08-12T06:41:47.062Z,41.25
2018-08-12T06:44:17.117Z,41.50
2018-08-12T06:46:47.165Z,41.63
2018-08-12T06:49:17.238Z,40.25
2018-08-12T06:51:47.352Z,40.90
2018-08-12T06:54:17.325Z,40.71
2018-08-12T06:56:47.384Z,40.04
2018-08-12T06:59:17.533Z,39.92
2018-08-12T07:01:47.629Z,39.47
2018-08-12T07:04:17.714Z,40.35
2018-08-12T07:06:47.742Z,40.79
2018-08-12T07:09:17.870Z,39.88
2018-08-12T07:11:47.903Z,40.47
2018-08-12T07:14:17.991Z,40.22
2018-08-12T07:16:47.994Z,40.13
2018-08-12T07:19:18.088Z,39.40
2018-08-12T07:21:48.167Z,40.09
2018-08-12T07:24:18.247Z,39.02
2018-08-12T07:26:48.298Z,40.23
2018-08-12T07:29:18.420Z,40.58
2018-08-12T07:31:48.551Z,41.28
2018-08-12T07:34:18.593Z,39.93
2018-08-12T07:36:48.664Z,40.70
2018-08-12T07:39:18.693Z,40.92
2018-08-12T07:41:48.722Z,39.76
2018-08-12T07:44:18.783Z,40.51
2018-08-12T07:46:48.863Z,38.70
2018-08-12T07:49:18.985Z,38.81
2018-08-12T07:51:49.144Z,38.98
2018-08-12T07:54:19.228Z,39.54
2018-08-12T07:56:49.370Z,39.93
2018-08-12T07:59:19.416Z,40.76
2018-08-12T08:01:49.544Z,38.73
2018-08-12T08:04:19.667Z,38.39
2018-08-12T08:06:49.817Z,38.86
2018-08-12T08:09:19.916Z,38.74
2018-08-12T08:11:50.068Z,38.74
2018-08-12T08:14:20.225Z,37.71
2018-08-12T08:16:50.324Z,38.25
2018-08-12T08:19:20.394Z,40.28
2018-08-12T08:21:50.480Z,39.22
2018-08-12T08:24:20.553Z,36.42
2018-08-12T08:26:50.685Z,36.70
2018-08-12T08:29:20.831Z,38.10
2018-08-12T08:31:51.195Z,37.48
2018-08-12T08:34:21.139Z,36.07
2018-08-12T08:36:51.307Z,34.95
2018-08-12T08:39:21.390Z,36.35
2018-08-12T08:41:51.575Z,36.33
2018-08-12T08:44:21.712Z,34.97
2018-08-12T08:46:51.802Z,36.28
2018-08-12T08:49:21.968Z,35.48
2018-08-12T08:51:52.055Z,36.56
2018-08-12T08:54:22.164Z,36.15
2018-08-12T08:56:52.452Z,34.92
2018-08-12T08:59:22.497Z,35.10
2018-08-12T09:01:53.547Z,34.62
2018-08-12T09:04:23.584Z,33.81
2018-08-12T09:06:53.731Z,35.67
2018-08-12T09:09:23.787Z,35.34
2018-08-12T09:11:53.904Z,37.21
2018-08-12T09:14:23.929Z,34.92
2018-08-12T09:16:54.006Z,34.24
2018-08-12T09:19:24.123Z,35.31
2018-08-12T09:21:54.232Z,34.87
2018-08-12T09:24:24.303Z,35.52
2018-08-12T09:26:54.374Z,34.38
2018-08-12T09:29:24.448Z,34.27
2018-08-12T09:31:54.529Z,33.18
2018-08-12T09:34:24.582Z,33.08
2018-08-12T09:36:54.656Z,32.41
2018-08-12T09:39:24.763Z,33.29
2018-08-12T09:41:54.881Z,31.82
2018-08-12T09:44:24.980Z,33.36
2018-08-12T09:46:55.060Z,32.62
2018-08-12T09:49:25.140Z,31.90
2018-08-12T09:51:55.231Z,32.81
2018-08-12T09:54:25.251Z,32.97
2018-08-12T09:56:55.344Z,32.67
2018-08-12T09:59:25.508Z,33.09
2018-08-12T10:01:55.593Z,32.98
2018-08-12T10:04:25.706Z,31.97
2018-08-12T10:06:55.787Z,32.80
2018-08-12T10:09:25.813Z,32.31
2018-08-12T10:11:55.907Z,31.48
2018-08-12T10:14:26.006Z,31.05
2018-08-12T10:16:56.069Z,30.29
2018-08-12T10:19:26.158Z,31.36
2018-08-12T10:21:56.343Z,31.54
2018-08-12T10:24:26.390Z,32.52
2018-08-12T10:26:56.444Z,31.82
2018-08-12T10:29:26.570Z,30.72
2018-08-12T10:31:56.726Z,31.21
2018-08-12T10:34:26.794Z,31.42
2018-08-12T10:36:56.898Z,30.17
2018-08-12T10:39:26.939Z,30.80
2018-08-12T10:41:56.999Z,29.91
2018-08-12T10:44:27.057Z,30.05
2018-08-12T10:46:57.160Z,30.38
2018-08-12T10:49:27.318Z,28.58
2018-08-12T10:51:57.931Z,28.91
2018-08-12T10:54:28.029Z,31.51
2018-08-12T10:56:58.267Z,29.39
2018-08-12T10:59:28.516Z,28.80
2018-08-12T11:01:58.746Z,28.35
2018-08-12T11:04:28.875Z,28.86
2018-08-12T11:06:58.988Z,28.87
2018-08-12T11:09:29.112Z,27.44
2018-08-12T11:11:59.246Z,28.86
2018-08-12T11:14:29.341Z,29.48
2018-08-12T11:16:59.476Z,27.31
2018-08-12T11:19:29.579Z,27.77
2018-08-12T11:21:59.597Z,26.64
2018-08-12T11:24:29.723Z,28.07
2018-08-12T11:26:59.747Z,27.64
2018-08-12T11:29:29.792Z,27.93
2018-08-12T11:31:59.859Z,28.37
2018-08-12T11:34:29.916Z,30.19
2018-08-12T11:36:59.956Z,27.33
2018-08-12T11:39:29.991Z,30.31
2018-08-12T11:42:00.079Z,29.17
2018-08-12T11:44:30.136Z,29.36
2018-08-12T11:47:00.226Z,29.68
2018-08-12T11:49:30.356Z,27.92
2018-08-12T11:52:00.716Z,28.31
2018-08-12T11:54:30.909Z,27.48
2018-08-12T11:57:01.101Z,26.65
2018-08-12T11:59:31.279Z,24.73
2018-08-12T12:02:01.413Z,24.25
2018-08-12T12:04:31.630Z,26.43
2018-08-12T12:07:01.665Z,26.34
2018-08-12T12:09:31.783Z,26.53
2018-08-12T12:12:01.875Z,25.42
2018-08-12T12:14:32.077Z,26.80
2018-08-12T12:17:02.217Z,27.53
2018-08-12T12:19:32.382Z,26.70
2018-08-12T12:22:02.572Z,28.09
2018-08-12T12:24:32.764Z,27.05
2018-08-12T12:27:02.832Z,27.56
2018-08-12T12:29:32.961Z,26.72
2018-08-12T12:32:03.164Z,27.43
2018-08-12T12:34:33.291Z,27.11
2018-08-12T12:37:03.367Z,27.23
2018-08-12T12:39:33.416Z,26.61
2018-08-12T12:42:03.422Z,26.71
2018-08-12T12:44:33.504Z,27.38
2018-08-12T12:47:03.608Z,27.28
2018-08-12T12:49:33.724Z,26.78
2018-08-12T12:52:03.794Z,28.97
2018-08-12T12:54:33.810Z,29.86
2018-08-12T12:57:03.871Z,27.99
2018-08-12T12:59:33.960Z,26.74
2018-08-12T13:02:04.036Z,28.55
2018-08-12T13:04:34.118Z,27.33
2018-08-12T13:07:04.235Z,26.88
2018-08-12T13:09:34.288Z,26.99
2018-08-12T13:12:04.338Z,28.91
2018-08-12T13:14:34.472Z,27.04
2018-08-12T13:17:04.473Z,28.14
2018-08-12T13:19:34.471Z,28.12
2018-08-12T13:22:04.563Z,25.74
2018-08-12T13:24:34.608Z,27.68
2018-08-12T13:27:04.651Z,27.23
2018-08-12T13:29:34.709Z,27.40
2018-08-12T13:32:04.780Z,25.84
2018-08-12T13:34:34.800Z,27.72
2018-08-12T13:37:04.888Z,28.09
2018-08-12T13:39:34.951Z,27.36
2018-08-12T13:42:05.002Z,25.86
2018-08-12T13:44:34.977Z,25.49
2018-08-12T13:47:05.150Z,25.96
2018-08-12T13:49:35.310Z,27.16
2018-08-12T13:52:05.643Z,26.45
2018-08-12T13:54:35.787Z,27.23
2018-08-12T13:57:05.911Z,25.46
2018-08-12T13:59:35.950Z,26.31
2018-08-12T14:02:06.190Z,25.49
2018-08-12T14:04:36.291Z,26.90
2018-08-12T14:07:06.535Z,25.51
2018-08-12T14:09:36.655Z,26.82
2018-08-12T14:12:06.934Z,26.47
2018-08-12T14:14:37.000Z,25.67
2018-08-12T14:17:07.462Z,25.45
2018-08-12T14:19:37.537Z,25.27
2018-08-12T14:22:07.751Z,26.00
2018-08-12T14:24:37.754Z,26.89
2018-08-12T14:27:07.877Z,27.19
2018-08-12T14:29:38.098Z,25.88
2018-08-12T14:32:08.186Z,27.45
2018-08-12T14:34:38.227Z,27.18
2018-08-12T14:37:08.503Z,26.04
2018-08-12T14:39:38.578Z,25.84
2018-08-12T14:42:08.704Z,26.10
2018-08-12T14:44:38.805Z,28.19
2018-08-12T14:47:08.840Z,27.03
2018-08-12T14:49:38.967Z,26.55
2018-08-12T14:52:09.088Z,27.04
2018-08-12T14:54:39.141Z,26.18
2018-08-12T14:57:09.212Z,27.58
2018-08-12T14:59:39.240Z,26.86
2018-08-12T15:02:09.400Z,27.30
2018-08-12T15:04:39.509Z,26.90
2018-08-12T15:07:09.700Z,26.98
2018-08-12T15:09:39.717Z,27.24
2018-08-12T15:12:09.824Z,29.08
2018-08-12T15:14:39.846Z,27.54
2018-08-12T15:17:09.985Z,26.97
2018-08-12T15:19:40.069Z,27.68
2018-08-12T15:22:10.146Z,26.71
2018-08-12T15:24:40.203Z,25.96
2018-08-12T15:27:10.340Z,26.56
2018-08-12T15:29:40.436Z,28.85
2018-08-12T15:32:10.596Z,26.26
2018-08-12T15:34:40.674Z,27.13
2018-08-12T15:37:10.820Z,26.98
2018-08-12T15:39:40.969Z,26.22
2018-08-12T15:42:11.100Z,26.66
2018-08-12T15:44:41.210Z,26.84
2018-08-12T15:47:11.450Z,26.54
2018-08-12T15:49:41.585Z,27.14
2018-08-12T15:52:11.679Z,26.66
2018-08-12T15:54:41.842Z,27.05
2018-08-12T15:57:11.944Z,27.86
2018-08-12T15:59:42.028Z,26.86
2018-08-12T16:02:12.138Z,27.54
2018-08-12T16:04:42.236Z,27.01
2018-08-12T16:07:12.339Z,27.75
2018-08-12T16:09:42.434Z,27.91
2018-08-12T16:12:12.571Z,27.86
2018-08-12T16:14:42.624Z,27.31
2018-08-12T16:17:12.741Z,27.39
2018-08-12T16:19:42.800Z,27.05
2018-08-12T16:22:12.954Z,27.46
2018-08-12T16:24:43.089Z,28.46
2018-08-12T16:27:13.195Z,27.67
2018-08-12T16:29:43.244Z,27.43
2018-08-12T16:32:13.320Z,28.04
2018-08-12T16:34:43.388Z,28.55
2018-08-12T16:37:13.488Z,29.20
2018-08-12T16:39:43.533Z,28.71
2018-08-12T16:42:13.658Z,28.32
2018-08-12T16:44:43.701Z,29.05
2018-08-12T16:47:13.917Z,28.76
2018-08-12T16:49:44.114Z,28.86
2018-08-12T16:52:14.246Z,29.95
2018-08-12T16:54:44.322Z,28.42
2018-08-12T16:57:14.644Z,29.91
2018-08-12T16:59:45.085Z,28.89
2018-08-12T17:02:15.317Z,29.99
2018-08-12T17:04:45.353Z,29.94
2018-08-12T17:07:15.453Z,30.25
2018-08-12T17:09:45.573Z,29.96
2018-08-12T17:12:15.658Z,30.79
2018-08-12T17:14:45.752Z,29.85
2018-08-12T17:17:15.831Z,30.98
2018-08-12T17:19:45.892Z,30.55
2018-08-12T17:22:15.969Z,29.82
2018-08-12T17:24:46.004Z,30.31
2018-08-12T17:27:16.095Z,30.47
2018-08-12T17:29:46.132Z,30.33
2018-08-12T17:32:16.161Z,30.87
2018-08-12T17:34:46.236Z,30.94
2018-08-12T17:37:16.414Z,30.48
2018-08-12T17:39:46.489Z,30.50
2018-08-12T17:42:16.578Z,31.17
2018-08-12T17:44:46.611Z,30.89
2018-08-12T17:47:16.795Z,31.48
2018-08-12T17:49:46.879Z,30.67
2018-08-12T17:52:17.049Z,31.60
2018-08-12T17:54:47.113Z,31.61
2018-08-12T17:57:17.175Z,31.51
2018-08-12T17:59:47.215Z,31.92
2018-08-12T18:02:17.263Z,33.25
2018-08-12T18:04:47.287Z,32.90
2018-08-12T18:07:17.310Z,34.73
2018-08-12T18:09:47.374Z,34.88
2018-08-12T18:12:17.403Z,34.45
2018-08-12T18:14:47.483Z,35.81
2018-08-12T18:17:17.671Z,36.20
2018-08-12T18:19:47.739Z,37.52
2018-08-12T18:22:17.862Z,37.85
2018-08-12T18:24:47.888Z,39.65
2018-08-12T18:27:17.997Z,40.37
2018-08-12T18:29:48.106Z,41.12
2018-08-12T18:32:18.183Z,42.21
2018-08-12T18:34:48.228Z,43.31
2018-08-12T18:37:18.372Z,44.37
2018-08-12T18:39:48.428Z,44.04
2018-08-12T18:42:18.440Z,45.59
2018-08-12T18:44:48.463Z,46.01
2018-08-12T18:47:18.603Z,45.78
2018-08-12T18:49:48.644Z,46.54
2018-08-12T18:52:18.826Z,47.33
2018-08-12T18:54:48.896Z,47.68
2018-08-12T18:57:19.032Z,48.35
2018-08-12T18:59:49.123Z,48.19
2018-08-12T19:02:19.306Z,47.79
2018-08-12T19:04:49.447Z,48.90
2018-08-12T19:07:19.486Z,48.58
2018-08-12T19:09:49.612Z,48.86
2018-08-12T19:12:19.760Z,48.99
2018-08-12T19:14:49.782Z,49.06
2018-08-12T19:17:19.855Z,49.92
2018-08-12T19:19:49.999Z,50.26
2018-08-12T19:22:20.102Z,50.23
2018-08-12T19:24:50.186Z,49.76
2018-08-12T19:27:20.273Z,49.80
2018-08-12T19:29:50.355Z,50.47
2018-08-12T19:32:20.454Z,50.51
2018-08-12T19:34:50.547Z,50.86
2018-08-12T19:37:20.620Z,51.65
2018-08-12T19:39:50.720Z,51.09
2018-08-12T19:42:20.871Z,51.93
2018-08-12T19:44:50.947Z,52.57
2018-08-12T19:47:21.114Z,53.03
2018-08-12T19:49:51.244Z,53.26
2018-08-12T19:52:21.374Z,52.68
2018-08-12T19:54:51.434Z,52.64
2018-08-12T19:57:21.468Z,52.63
2018-08-12T19:59:51.576Z,52.51
2018-08-12T20:02:21.670Z,52.07
2018-08-12T20:04:51.732Z,52.83
2018-08-12T20:07:21.847Z,52.76
2018-08-12T20:09:51.908Z,53.28
2018-08-12T20:12:22.018Z,53.54
2018-08-12T20:14:52.043Z,53.60
2018-08-12T20:17:22.162Z,53.64
2018-08-12T20:19:52.200Z,53.86
2018-08-12T20:22:22.292Z,53.37
2018-08-12T20:24:52.309Z,53.49
2018-08-12T20:27:22.435Z,54.03
2018-08-12T20:29:52.484Z,54.03
2018-08-12T20:32:22.599Z,53.81
2018-08-12T20:34:52.669Z,54.29
2018-08-12T20:37:22.847Z,54.03
2018-08-12T20:39:52.934Z,53.95
2018-08-12T20:42:23.121Z,54.09
2018-08-12T20:44:53.197Z,54.77
2018-08-12T20:47:23.437Z,54.30
2018-08-12T20:49:53.551Z,53.92
2018-08-12T20:52:23.774Z,54.05
2018-08-12T20:54:54.478Z,54.89
2018-08-12T20:57:24.664Z,54.68
2018-08-12T20:59:54.705Z,55.28
2018-08-12T21:02:25.918Z,54.76
2018-08-12T21:04:55.952Z,55.00
2018-08-12T21:07:26.211Z,54.77
2018-08-12T21:09:56.279Z,54.24
2018-08-12T21:12:26.607Z,53.62
2018-08-12T21:14:56.642Z,53.59
2018-08-12T21:17:27.030Z,54.66
2018-08-12T21:19:57.067Z,54.42
2018-08-12T21:22:27.312Z,54.40
2018-08-12T21:24:57.509Z,54.35
2018-08-12T21:27:27.701Z,54.54
2018-08-12T21:29:57.739Z,53.88
2018-08-12T21:32:27.924Z,53.29
2018-08-12T21:34:58.002Z,53.41
2018-08-12T21:37:28.318Z,53.44
2018-08-12T21:39:58.353Z,53.64
2018-08-12T21:42:28.612Z,53.24
2018-08-12T21:44:58.700Z,53.26
2018-08-12T21:47:29.039Z,53.86
2018-08-12T21:49:59.125Z,54.02
2018-08-12T21:52:29.448Z,54.05
2018-08-12T21:54:59.561Z,54.45
2018-08-12T21:57:29.814Z,54.33
2018-08-12T21:59:59.931Z,54.40
2018-08-12T22:02:30.210Z,54.69
2018-08-12T22:05:00.355Z,54.46
2018-08-12T22:07:30.691Z,54.14
2018-08-12T22:10:00.777Z,54.66
2018-08-12T22:12:30.954Z,54.49
2018-08-12T22:15:01.010Z,53.74
2018-08-12T22:17:31.162Z,52.87
2018-08-12T22:20:01.287Z,53.33
2018-08-12T22:22:31.451Z,53.54
2018-08-12T22:25:01.522Z,53.70
2018-08-12T22:27:31.694Z,53.87
2018-08-12T22:30:01.731Z,53.52
2018-08-12T22:32:31.798Z,54.00
2018-08-12T22:35:02.112Z,53.82
2018-08-12T22:37:32.279Z,54.21
2018-08-12T22:40:02.329Z,54.33
2018-08-12T22:42:32.431Z,54.40
2018-08-12T22:45:02.515Z,54.76
2018-08-12T22:47:32.690Z,54.93
2018-08-12T22:50:02.803Z,54.87
2018-08-12T22:52:32.894Z,55.02
2018-08-12T22:55:03.107Z,55.38
2018-08-12T22:57:33.271Z,55.64
2018-08-12T23:00:03.388Z,55.71
2018-08-12T23:02:33.611Z,55.88
2018-08-12T23:05:03.814Z,55.42
2018-08-12T23:07:34.018Z,55.75
2018-08-12T23:10:04.148Z,55.92
2018-08-12T23:12:34.285Z,55.87
2018-08-12T23:15:20.980Z,55.83
2018-08-12T23:17:51.069Z,55.76
2018-08-12T23:20:21.148Z,55.93
2018-08-12T23:22:51.222Z,55.75
2018-08-12T23:25:21.247Z,56.78
2018-08-12T23:27:51.412Z,55.80
2018-08-12T23:30:21.490Z,56.46
2018-08-12T23:32:51.581Z,56.48
2018-08-12T23:35:21.679Z,56.64
2018-08-12T23:37:51.727Z,56.59
2018-08-12T23:40:21.892Z,56.56
2018-08-12T23:42:51.944Z,56.80
2018-08-12T23:45:21.989Z,56.53
2018-08-12T23:47:52.071Z,56.38
2018-08-12T23:50:22.196Z,56.11
2018-08-12T23:52:52.237Z,56.27
2018-08-12T23:55:22.383Z,56.03
2018-08-12T23:57:52.414Z,55.77
